Time;durP1;ratioP1;P1;durP2;ratioP2;P2;SDS_P1;SDS_P2;PMS_P1;PMS_P2;Temp;Humidity;BMP_temperature;BMP_pressure;BME280_temperature;BME280_humidity;BME280_pressure;Samples;Min_cycle;Max_cycle;Signal;HPM_P1;HPM_P2
2022/03/09 00:00:44;;;;;;;33.92;12.78;;;;;;;-1.96;71.31;99265.05;1724531;80;21147;31
2022/03/09 00:09:30;;;;;;;26.20;10.95;;;;;;;-2.06;71.32;99257.55;1746563;78;21185;31
2022/03/09 00:12:02;;;;;;;27.20;10.80;;;;;;;-2.08;72.11;99264.70;1733430;80;21093;31
2022/03/09 00:14:33;;;;;;;29.32;12.40;;;;;;;-2.13;72.16;99257.33;1675427;82;21037;-81
2022/03/09 00:19:57;;;;;;;35.45;11.53;;;;;;;-2.16;71.89;99257.27;1735759;79;21185;-83
2022/03/09 00:22:41;;;;;;;30.72;11.95;;;;;;;-2.19;71.67;99258.02;1738377;79;21347;31
2022/03/09 00:31:17;;;;;;;38.90;13.50;;;;;;;-2.26;71.57;99249.35;1760502;79;21099;31
2022/03/09 00:40:06;;;;;;;29.45;12.63;;;;;;;-2.36;71.98;99248.64;1744740;78;21126;31
2022/03/09 00:42:40;;;;;;;33.67;12.58;;;;;;;-2.37;71.55;99246.03;1745114;79;21189;31
2022/03/09 00:45:14;;;;;;;30.47;11.63;;;;;;;-2.41;73.07;99241.26;1748456;79;21147;31
2022/03/09 00:47:52;;;;;;;27.22;9.48;;;;;;;-2.44;72.46;99245.01;1777777;79;21151;31
2022/03/09 00:50:18;;;;;;;32.45;10.75;;;;;;;-2.48;72.98;99242.77;1711607;81;21056;-82
2022/03/09 00:52:48;;;;;;;35.60;12.40;;;;;;;-2.50;72.81;99241.87;1698205;84;20946;-83
2022/03/09 00:55:30;;;;;;;29.23;11.33;;;;;;;-2.54;73.52;99233.69;1744220;80;21201;31
2022/03/09 00:58:03;;;;;;;30.00;11.55;;;;;;;-2.53;72.67;99235.81;1748538;78;23336;31
2022/03/09 01:00:43;;;;;;;;;;;;;;;-2.53;72.11;99237.95;1744140;78;21240;31
2022/03/09 01:03:14;;;;;;;29.45;12.33;;;;;;;-2.54;72.18;99231.56;1759900;77;20187;-84
2022/03/09 01:05:42;;;;;;;27.10;12.00;;;;;;;-2.57;72.46;99228.49;1689111;79;21108;-82
2022/03/09 01:08:18;;;;;;;30.92;11.43;;;;;;;-2.60;72.28;99226.73;1659211;79;21073;31
2022/03/09 01:10:45;;;;;;;24.45;10.35;;;;;;;-2.62;72.59;99232.19;1712983;79;21047;-82
2022/03/09 01:16:21;;;;;;;38.20;13.68;;;;;;;-2.66;72.57;99226.55;1703186;81;21099;-81
2022/03/09 01:30:39;;;;;;;27.30;11.45;;;;;;;-2.83;72.79;99223.48;1740339;79;21079;31
2022/03/09 01:42:17;;;;;;;28.75;11.80;;;;;;;-3.02;74.21;99227.16;1749803;79;21145;31
2022/03/09 01:44:51;;;;;;;29.95;12.28;;;;;;;-3.07;73.63;99232.49;1742232;78;21066;31
2022/03/09 01:47:40;;;;;;;31.48;11.33;;;;;;;-3.14;73.62;99224.63;1745150;78;21118;31
2022/03/09 01:50:09;;;;;;;29.10;11.85;;;;;;;-3.16;74.27;99233.50;1704842;79;21160;-77
2022/03/09 02:02:20;;;;;;;25.10;10.63;;;;;;;-3.32;74.01;99232.14;1733517;79;21106;-80
2022/03/09 02:04:50;;;;;;;24.23;11.38;;;;;;;-3.37;74.25;99232.80;1722389;79;21594;-76
2022/03/09 02:10:45;;;;;;;26.35;11.48;;;;;;;-3.42;73.58;99233.93;1724959;78;21087;-77
2022/03/09 02:13:22;;;;;;;29.85;11.83;;;;;;;-3.46;74.63;99243.12;1730147;79;21217;31
2022/03/09 02:15:49;;;;;;;29.02;11.08;;;;;;;-3.46;73.83;99230.80;1730367;79;21182;-82
2022/03/09 02:18:16;;;;;;;35.83;11.73;;;;;;;-3.49;74.90;99239.20;1696238;80;21064;-83
2022/03/09 02:20:46;;;;;;;30.82;11.50;;;;;;;-3.51;75.12;99233.61;1679138;81;21116;-77
2022/03/09 02:23:18;;;;;;;26.37;10.75;;;;;;;-3.51;75.89;99239.55;1658137;83;21021;-77
2022/03/09 02:25:56;;;;;;;30.12;11.38;;;;;;;-3.52;74.34;99248.39;1675307;81;21058;31
2022/03/09 02:40:35;;;;;;;29.23;11.22;;;;;;;-3.72;75.25;99257.88;1691801;80;21245;-80
2022/03/09 02:49:15;;;;;;;24.67;10.05;;;;;;;-3.82;76.35;99259.23;1713744;81;21110;-78
2022/03/09 02:51:52;;;;;;;28.13;10.80;;;;;;;-3.85;75.13;99254.92;1682993;81;21117;31
2022/03/09 02:54:19;;;;;;;26.52;10.93;;;;;;;-3.85;75.08;99253.66;1656424;81;21102;-78
2022/03/09 03:02:52;;;;;;;23.85;10.40;;;;;;;-3.90;75.02;99251.38;1641479;81;21156;-84
2022/03/09 03:08:16;;;;;;;24.52;10.35;;;;;;;-3.91;75.69;99247.09;1700426;81;21156;-78
2022/03/09 03:14:05;;;;;;;27.97;10.30;;;;;;;-3.93;75.28;99238.97;1716392;80;21090;31
2022/03/09 03:16:39;;;;;;;25.88;10.58;;;;;;;-3.97;76.77;99236.72;1687669;81;21142;31
2022/03/09 03:19:09;;;;;;;26.70;9.83;;;;;;;-3.98;76.78;99235.39;1721921;80;21140;31
2022/03/09 03:21:58;;;;;;;25.20;10.33;;;;;;;-4.00;75.60;99240.03;1695242;80;21213;31
2022/03/09 03:24:27;;;;;;;28.45;11.48;;;;;;;-4.02;75.90;99240.38;1709723;80;21134;-80
2022/03/09 03:26:58;;;;;;;28.83;10.68;;;;;;;-4.05;75.87;99236.86;1678327;81;21112;-80
2022/03/09 03:29:30;;;;;;;30.37;10.13;;;;;;;-4.08;76.54;99242.70;1675572;81;21140;-84
2022/03/09 03:31:57;;;;;;;27.48;11.53;;;;;;;-4.10;75.18;99243.44;1698247;81;21182;-81
2022/03/09 03:34:27;;;;;;;28.65;11.78;;;;;;;-4.11;76.76;99241.31;1689150;81;21100;31
2022/03/09 03:37:00;;;;;;;28.27;11.35;;;;;;;-4.13;76.63;99236.59;1704939;80;21052;31
2022/03/09 03:58:21;;;;;;;34.25;11.35;;;;;;;-4.21;75.62;99252.81;1732636;80;20993;31
2022/03/09 04:00:48;;;;;;;26.25;10.98;;;;;;;-4.21;76.78;99255.34;1717949;81;21170;-83
2022/03/09 04:03:17;;;;;;;26.37;10.23;;;;;;;-4.21;76.07;99252.81;1676443;81;21102;-84
2022/03/09 04:05:46;;;;;;;32.58;11.03;;;;;;;-4.20;76.20;99254.94;1696411;80;21107;-84
2022/03/09 04:17:07;;;;;;;28.00;10.32;;;;;;;-4.18;76.91;99251.19;1699382;81;20449;31
2022/03/09 04:19:36;;;;;;;26.73;11.25;;;;;;;-4.16;76.52;99259.31;1703302;80;21127;-84
2022/03/09 04:22:03;;;;;;;33.65;12.20;;;;;;;-4.19;76.35;99264.30;1697395;81;21091;-77
2022/03/09 04:24:39;;;;;;;25.80;11.20;;;;;;;-4.17;77.14;99252.94;1688884;80;21079;31
2022/03/09 04:27:06;;;;;;;24.45;10.55;;;;;;;-4.16;76.80;99250.84;1719735;79;21174;-82
2022/03/09 04:29:36;;;;;;;33.95;11.20;;;;;;;-4.11;78.07;99258.23;1697295;80;21134;-81
2022/03/09 04:32:17;;;;;;;35.23;12.43;;;;;;;-4.08;78.81;99249.05;1682759;80;21112;31
2022/03/09 04:37:48;;;;;;;30.95;10.93;;;;;;;-4.08;77.84;99249.05;1710115;81;21121;-80
2022/03/09 04:43:11;;;;;;;;;;;;;;;-4.10;76.21;99248.14;1707377;79;21162;-81
2022/03/09 04:45:42;;;;;;;29.35;10.68;;;;;;;-4.09;77.86;99247.30;1718824;79;20237;31
2022/03/09 04:48:08;;;;;;;26.12;10.98;;;;;;;-4.05;76.88;99250.41;1706047;80;22707;-82
2022/03/09 04:50:35;;;;;;;26.27;9.93;;;;;;;-4.01;77.55;99260.28;1688605;80;21068;-79
2022/03/09 04:59:18;;;;;;;67.30;22.10;;;;;;;-3.87;77.78;99262.05;1705076;79;21072;31
2022/03/09 05:01:47;;;;;;;51.13;17.87;;;;;;;-3.78;77.27;99271.64;1677029;79;21069;-83
2022/03/09 05:11:08;;;;;;;44.88;17.52;;;;;;;-3.58;77.49;99283.77;1678315;82;21133;31
2022/03/09 05:13:36;;;;;;;43.23;15.75;;;;;;;-3.51;77.01;99290.39;1665577;81;21069;-78
2022/03/09 05:16:06;;;;;;;34.08;13.48;;;;;;;-3.47;77.49;99287.55;1713520;79;21061;-77
2022/03/09 05:18:52;;;;;;;30.63;13.90;;;;;;;-3.41;77.85;99291.16;1706642;80;21127;31
2022/03/09 05:21:23;;;;;;;44.08;14.20;;;;;;;-3.35;76.40;99293.05;1700027;80;22816;-81
2022/03/09 05:23:53;;;;;;;36.80;13.83;;;;;;;-3.32;76.86;99291.89;1692247;79;22562;31
2022/03/09 05:33:00;;;;;;;25.77;12.37;;;;;;;-3.06;77.02;99302.91;1739347;81;22349;31
2022/03/09 05:35:51;;;;;;;33.35;13.28;;;;;;;-2.94;76.23;99297.78;1644910;82;22646;31
2022/03/09 05:38:34;;;;;;;46.85;14.43;;;;;;;-2.91;76.78;99299.98;1722689;82;21174;31
2022/03/09 05:44:02;;;;;;;36.40;14.68;;;;;;;-2.76;76.82;99312.77;1732374;81;21494;31
2022/03/09 05:46:56;;;;;;;115.00;35.93;;;;;;;-2.65;76.64;99308.85;1681931;81;22411;31
2022/03/09 05:49:47;;;;;;;71.10;24.25;;;;;;;-2.55;76.71;99314.67;1701911;81;21039;31
2022/03/09 06:01:33;;;;;;;76.77;22.27;;;;;;;-2.23;75.13;99331.34;1718390;81;21150;31
2022/03/09 06:04:16;;;;;;;112.07;30.53;;;;;;;-2.32;74.60;99344.67;1674463;81;21174;31
2022/03/09 06:19:13;;;;;;;36.28;12.88;;;;;;;-2.03;74.41;99330.27;1697518;80;21085;31
2022/03/09 06:24:59;;;;;;;39.10;13.70;;;;;;;-1.93;74.07;99340.31;1721637;80;21169;31
2022/03/09 06:30:49;;;;;;;36.45;15.80;;;;;;;-1.96;73.05;99342.76;1717889;81;21229;31
2022/03/09 06:36:30;;;;;;;37.88;15.10;;;;;;;-1.95;73.29;99348.33;1708232;80;21267;31
2022/03/09 06:39:05;;;;;;;41.60;17.42;;;;;;;-2.03;74.06;99348.09;1713476;80;21113;31
2022/03/09 06:51:19;;;;;;;32.65;13.90;;;;;;;-2.17;74.69;99344.67;1725045;80;22590;31
2022/03/09 07:06:06;;;;;;;34.78;12.37;;;;;;;-1.49;72.32;99349.61;1704381;80;21095;-87
2022/03/09 07:53:57;;;;;;;25.92;11.03;;;;;;;-0.01;68.15;99367.23;1709363;81;21110;-84
2022/03/09 07:56:24;;;;;;;34.88;12.28;;;;;;;0.05;67.56;99367.79;1695967;85;21287;-86
2022/03/09 07:58:54;;;;;;;29.18;12.88;;;;;;;0.17;67.65;99370.59;1700187;83;21001;-86
2022/03/09 08:01:21;;;;;;;26.73;11.28;;;;;;;0.27;66.37;99377.63;1673306;80;21072;-84
2022/03/09 08:03:48;;;;;;;38.25;11.65;;;;;;;0.32;66.89;99376.44;1637973;82;21083;-83
2022/03/09 08:06:15;;;;;;;25.97;9.95;;;;;;;0.44;67.05;99374.15;1637926;82;21032;-84
2022/03/09 08:08:41;;;;;;;26.52;11.15;;;;;;;0.47;66.89;99378.45;1659880;82;21094;-84
2022/03/09 08:14:13;;;;;;;34.88;13.30;;;;;;;0.52;66.09;99376.44;1694296;79;21178;31
2022/03/09 08:16:50;;;;;;;37.78;10.15;;;;;;;0.55;65.04;99374.34;1704242;81;21155;31
2022/03/09 08:19:17;;;;;;;29.15;10.38;;;;;;;0.56;64.90;99370.97;1657742;84;21127;-84
2022/03/09 08:21:44;;;;;;;30.82;11.30;;;;;;;0.56;66.24;99376.95;1683530;82;21027;-84
2022/03/09 08:32:36;;;;;;;34.98;9.75;;;;;;;0.65;62.71;99371.13;1641524;82;21115;-85
2022/03/09 08:35:04;;;;;;;25.90;9.35;;;;;;;0.66;62.45;99375.43;1695376;83;21038;-83
2022/03/09 08:37:31;;;;;;;26.40;10.18;;;;;;;0.67;62.19;99374.58;1710993;81;21052;-81
2022/03/09 08:39:58;;;;;;;22.32;8.33;;;;;;;0.68;61.32;99376.74;1715660;81;21183;-80
2022/03/09 08:42:32;;;;;;;24.37;9.13;;;;;;;0.70;61.77;99377.21;1711803;80;21126;31
2022/03/09 08:48:02;;;;;;;30.17;10.48;;;;;;;0.81;61.87;99376.12;1690537;80;21121;-83
2022/03/09 08:50:28;;;;;;;21.35;10.00;;;;;;;0.87;62.79;99376.23;1647205;83;21084;-82
2022/03/09 08:52:56;;;;;;;19.67;7.95;;;;;;;0.86;61.79;99374.95;1668864;83;21033;-83
2022/03/09 08:58:17;;;;;;;19.75;8.53;;;;;;;0.92;62.64;99373.78;1706203;80;21062;31
2022/03/09 09:00:44;;;;;;;24.50;9.48;;;;;;;0.96;60.92;99369.16;1729797;79;21073;-81
2022/03/09 09:03:26;;;;;;;17.63;7.30;;;;;;;1.07;60.94;99368.05;1721503;79;21130;31
2022/03/09 09:05:55;;;;;;;13.35;6.42;;;;;;;1.19;61.12;99372.09;1728323;79;21068;-78
2022/03/09 09:11:22;;;;;;;16.67;6.92;;;;;;;1.44;58.72;99363.55;1604441;85;21134;-83
2022/03/09 09:13:49;;;;;;;12.35;6.28;;;;;;;1.67;57.43;99368.63;1609555;84;21054;-84
2022/03/09 09:16:16;;;;;;;14.20;7.42;;;;;;;1.76;55.50;99370.02;1666963;81;21130;-82
2022/03/09 09:18:43;;;;;;;11.48;5.87;;;;;;;1.93;57.84;99365.55;1674923;83;21511;-83
2022/03/09 09:21:11;;;;;;;14.23;5.67;;;;;;;2.10;56.15;99360.23;1680166;82;21650;-87
2022/03/09 09:23:39;;;;;;;12.63;5.67;;;;;;;2.30;54.80;99366.90;1683896;82;21207;-86
2022/03/09 09:26:06;;;;;;;12.20;5.45;;;;;;;2.47;55.73;99369.69;1714307;81;21110;-87
2022/03/09 09:28:32;;;;;;;9.68;4.92;;;;;;;2.71;52.31;99371.67;1710754;82;21038;-88
2022/03/09 09:30:59;;;;;;;11.40;5.25;;;;;;;2.92;51.92;99374.86;1684125;82;21076;-90
2022/03/09 09:33:26;;;;;;;12.85;5.10;;;;;;;3.12;52.73;99374.20;1677639;84;21567;-89
2022/03/09 09:35:52;;;;;;;13.58;6.40;;;;;;;3.44;55.08;99368.05;1677778;84;21019;-88
2022/03/09 09:38:19;;;;;;;11.80;6.10;;;;;;;3.81;56.72;99368.34;1676286;84;21312;-86
2022/03/09 09:40:47;;;;;;;10.55;5.70;;;;;;;4.07;52.86;99363.34;1674639;84;20995;-88
2022/03/09 09:43:15;;;;;;;16.77;6.95;;;;;;;4.33;55.02;99369.05;1725221;82;21069;-82
2022/03/09 09:45:43;;;;;;;12.65;6.37;;;;;;;4.61;53.22;99365.30;1711945;82;20985;-82
2022/03/09 09:48:11;;;;;;;17.00;6.85;;;;;;;4.76;51.58;99368.78;1724583;82;21034;-84
2022/03/09 09:50:40;;;;;;;15.03;6.15;;;;;;;4.91;52.89;99367.94;1726722;82;21691;-84
2022/03/09 09:53:10;;;;;;;18.55;6.35;;;;;;;5.03;49.16;99367.55;1737089;81;21023;-86
2022/03/09 09:55:40;;;;;;;13.22;5.87;;;;;;;4.86;46.23;99345.63;1720947;81;21022;-86
2022/03/09 09:58:07;;;;;;;11.45;5.70;;;;;;;5.06;48.80;99370.14;1692060;82;21120;-88
2022/03/09 10:00:35;;;;;;;12.43;5.80;;;;;;;5.26;48.35;99374.03;1696292;81;21110;-84
2022/03/09 10:03:05;;;;;;;11.00;5.72;;;;;;;4.75;45.54;99384.22;1707706;81;21017;-85
2022/03/09 10:05:32;;;;;;;10.80;5.42;;;;;;;4.69;47.95;99379.91;1694929;81;21020;-85
2022/03/09 10:08:07;;;;;;;18.32;6.37;;;;;;;4.73;46.48;99376.92;1696782;84;21048;-84
2022/03/09 10:10:41;;;;;;;9.45;4.78;;;;;;;4.86;49.70;99372.25;1700747;81;21063;-83
2022/03/09 10:13:26;;;;;;;11.68;5.92;;;;;;;4.94;47.41;99377.42;1697621;84;21293;-83
2022/03/09 10:16:15;;;;;;;13.90;6.12;;;;;;;5.07;48.23;99380.86;1697070;84;21008;-84
2022/03/09 10:18:49;;;;;;;14.45;6.67;;;;;;;5.12;45.54;99376.16;1702447;84;21074;-84
2022/03/09 10:21:23;;;;;;;12.50;5.62;;;;;;;5.20;49.44;99376.61;1701600;84;21060;-83
2022/03/09 10:23:59;;;;;;;8.80;4.42;;;;;;;5.34;47.47;99375.74;1692937;84;21015;-82
2022/03/09 10:26:34;;;;;;;10.35;5.17;;;;;;;5.08;41.37;99380.88;1659570;86;21055;-84
2022/03/09 10:29:07;;;;;;;11.00;5.22;;;;;;;5.08;42.55;99380.02;1703478;80;21016;-84
2022/03/09 10:31:44;;;;;;;13.78;5.40;;;;;;;5.08;45.43;99376.16;1662037;82;21087;-84
2022/03/09 10:34:20;;;;;;;15.32;5.67;;;;;;;5.12;44.78;99371.00;1698992;81;21043;-84
2022/03/09 10:37:04;;;;;;;10.45;5.00;;;;;;;5.18;46.31;99377.45;1704907;83;20985;-84
2022/03/09 10:39:34;;;;;;;10.68;4.30;;;;;;;5.16;43.08;99374.45;1691026;84;21069;-84
2022/03/09 10:42:03;;;;;;;18.32;4.80;;;;;;;5.17;43.55;99377.03;1703381;84;21023;-83
2022/03/09 10:44:45;;;;;;;8.30;4.60;;;;;;;5.15;43.75;99373.59;1703454;83;21079;-83
2022/03/09 10:47:22;;;;;;;9.05;4.40;;;;;;;5.24;45.07;99365.00;1707453;83;21043;-84
2022/03/09 10:49:49;;;;;;;8.38;4.28;;;;;;;5.26;42.39;99363.72;1700051;83;20961;-84
2022/03/09 10:52:16;;;;;;;11.55;5.12;;;;;;;5.30;44.18;99361.57;1653951;83;21004;-84
2022/03/09 10:54:42;;;;;;;9.78;4.20;;;;;;;5.44;43.52;99361.14;1657524;86;21014;-85
2022/03/09 10:57:12;;;;;;;9.30;4.35;;;;;;;5.53;42.56;99365.42;1656725;84;21095;-86
2022/03/09 10:59:53;;;;;;;6.47;3.98;;;;;;;5.54;43.16;99364.14;1706959;83;21189;-84
2022/03/09 11:02:22;;;;;;;8.73;4.53;;;;;;;5.36;42.11;99360.28;1706732;81;21766;-87
2022/03/09 11:05:12;;;;;;;13.98;4.92;;;;;;;5.53;42.62;99361.55;1675973;84;21079;-82
2022/03/09 11:07:41;;;;;;;6.65;3.52;;;;;;;5.67;41.63;99367.59;1684164;84;20988;-79
2022/03/09 11:10:10;;;;;;;6.50;3.02;;;;;;;5.72;39.48;99359.39;1679849;83;21192;-78
2022/03/09 11:12:38;;;;;;;9.13;4.47;;;;;;;5.58;35.96;99361.13;1679992;83;21025;-80
2022/03/09 11:15:07;;;;;;;8.68;3.90;;;;;;;5.40;40.69;99367.16;1680754;83;21036;-79
2022/03/09 11:17:35;;;;;;;6.15;3.40;;;;;;;5.17;37.83;99371.88;1684916;83;21452;-80
2022/03/09 11:20:01;;;;;;;6.37;3.08;;;;;;;5.13;41.12;99361.54;1683889;83;21011;-81
2022/03/09 11:22:27;;;;;;;11.60;3.65;;;;;;;5.08;41.00;99361.55;1681048;84;21000;-79
2022/03/09 11:24:55;;;;;;;7.83;3.52;;;;;;;4.98;38.68;99367.11;1682574;83;20973;-80
2022/03/09 11:27:23;;;;;;;7.92;3.87;;;;;;;4.98;39.82;99368.83;1686087;83;21044;-81
2022/03/09 11:29:51;;;;;;;11.15;4.45;;;;;;;4.86;38.29;99360.65;1681645;83;21023;-80
2022/03/09 11:32:34;;;;;;;12.20;3.98;;;;;;;4.99;38.56;99358.95;1648654;85;21018;-82
2022/03/09 11:35:00;;;;;;;11.05;4.42;;;;;;;4.97;40.00;99358.97;1626111;86;21001;-80
2022/03/09 11:37:40;;;;;;;8.35;3.42;;;;;;;4.89;36.02;99349.05;1679263;83;21114;-81
2022/03/09 11:40:12;;;;;;;13.72;4.53;;;;;;;4.96;39.50;99354.66;1681360;84;20997;-81
2022/03/09 11:42:41;;;;;;;7.05;3.17;;;;;;;5.11;39.85;99352.55;1681509;84;21019;-80
2022/03/09 11:45:30;;;;;;;7.58;3.50;;;;;;;5.27;38.26;99352.53;1676812;85;20994;-81
2022/03/09 11:48:05;;;;;;;11.60;5.62;;;;;;;5.46;39.59;99352.12;1679225;84;21104;-81
2022/03/09 11:50:49;;;;;;;18.62;5.22;;;;;;;5.52;39.44;99353.41;1690023;84;21027;-82
2022/03/09 11:53:19;;;;;;;;;;;;;;;5.65;39.66;99342.63;1687154;84;21012;-82
2022/03/09 11:55:45;;;;;;;19.15;5.87;;;;;;;5.74;40.63;99348.64;1681731;84;20280;-82
2022/03/09 11:58:13;;;;;;;15.28;5.33;;;;;;;5.76;38.83;99347.36;1650610;87;21084;-81
2022/03/09 12:01:02;;;;;;;8.38;3.85;;;;;;;5.81;37.97;99341.77;1628057;87;21016;-81
2022/03/09 12:03:41;;;;;;;13.80;5.12;;;;;;;5.92;40.20;99341.73;1682779;84;21845;-81
2022/03/09 12:06:45;;;;;;;11.57;5.15;;;;;;;5.96;39.02;99346.05;1689813;84;21157;-81
2022/03/09 12:09:11;;;;;;;9.08;4.17;;;;;;;6.10;36.89;99342.15;1685052;85;21035;-81
2022/03/09 12:12:11;;;;;;;8.13;4.10;;;;;;;6.16;34.70;99345.56;1666824;85;20991;-82
2022/03/09 12:15:13;;;;;;;11.80;4.28;;;;;;;6.18;38.64;99349.00;1683510;84;21072;-80
2022/03/09 12:17:47;;;;;;;10.18;4.40;;;;;;;6.06;36.69;99343.02;1687668;84;21029;-82
2022/03/09 12:20:30;;;;;;;12.70;4.08;;;;;;;6.08;36.94;99352.47;1680818;85;20996;-82
2022/03/09 12:23:04;;;;;;;10.50;3.72;;;;;;;6.24;36.91;99345.98;1690077;84;21121;-81
2022/03/09 12:25:50;;;;;;;9.68;3.58;;;;;;;6.42;35.77;99338.15;1686786;84;21000;-81
2022/03/09 12:28:38;;;;;;;7.67;3.15;;;;;;;6.39;35.41;99347.22;1684725;84;20983;-82
2022/03/09 12:31:16;;;;;;;8.78;3.45;;;;;;;6.61;34.78;99336.35;1643308;86;21104;-81
2022/03/09 12:33:50;;;;;;;22.15;4.50;;;;;;;6.85;34.86;99342.25;1678582;85;21043;-82
2022/03/09 12:36:22;;;;;;;13.45;3.83;;;;;;;7.06;36.23;99337.36;1680451;85;21035;-81
2022/03/09 12:38:55;;;;;;;23.52;4.33;;;;;;;7.13;33.67;99335.17;1684760;84;21048;-81
2022/03/09 12:41:41;;;;;;;7.28;3.62;;;;;;;7.57;33.96;99334.80;1673353;84;21016;-82
2022/03/09 12:44:07;;;;;;;13.05;4.00;;;;;;;7.99;33.92;99336.97;1680633;84;21063;-83
2022/03/09 12:46:36;;;;;;;12.58;4.05;;;;;;;8.68;35.89;99328.40;1677155;84;21628;-81
2022/03/09 12:49:10;;;;;;;11.80;3.85;;;;;;;9.83;32.07;99332.62;1685551;84;21069;-87
2022/03/09 12:51:39;;;;;;;8.65;3.90;;;;;;;10.67;31.87;99330.14;1691147;84;21050;-82
2022/03/09 12:54:05;;;;;;;12.88;4.90;;;;;;;11.42;33.17;99327.09;1681243;85;21053;-83
2022/03/09 12:56:32;;;;;;;12.45;4.15;;;;;;;12.12;33.55;99332.69;1679370;85;21047;-83
2022/03/09 12:59:11;;;;;;;6.05;3.60;;;;;;;12.38;31.13;99329.34;1650225;86;21032;-83
2022/03/09 13:01:38;;;;;;;12.88;3.90;;;;;;;12.20;29.64;99333.78;1646686;87;21008;-82
2022/03/09 13:04:05;;;;;;;15.48;6.60;;;;;;;12.11;29.71;99343.99;1688171;82;21040;-82
2022/03/09 13:06:36;;;;;;;10.50;4.42;;;;;;;11.80;27.92;99338.28;1660235;85;21026;-82
2022/03/09 13:09:03;;;;;;;15.50;5.37;;;;;;;11.66;31.04;99338.64;1667438;84;21060;-83
2022/03/09 13:11:36;;;;;;;13.72;4.15;;;;;;;11.11;28.38;99335.63;1699755;84;21483;-81
2022/03/09 13:14:15;;;;;;;17.98;6.20;;;;;;;10.83;26.73;99335.41;1676121;84;21016;-83
2022/03/09 13:16:42;;;;;;;20.75;5.97;;;;;;;10.21;27.35;99338.41;1665276;86;21036;-82
2022/03/09 13:19:09;;;;;;;18.87;5.80;;;;;;;10.02;30.27;99332.70;1683187;84;21016;-83
2022/03/09 13:21:36;;;;;;;16.15;5.62;;;;;;;9.79;29.92;99336.16;1679369;84;21008;-81
2022/03/09 13:24:07;;;;;;;10.93;3.58;;;;;;;9.40;28.21;99332.94;1670916;84;21500;-81
2022/03/09 13:26:43;;;;;;;15.05;4.87;;;;;;;9.76;31.39;99329.29;1640221;87;21036;-82
2022/03/09 13:29:16;;;;;;;12.33;4.70;;;;;;;9.86;28.82;99332.58;1642801;86;21055;-81
2022/03/09 13:31:49;;;;;;;8.97;4.53;;;;;;;10.38;29.13;99338.54;1629004;87;21079;-83
2022/03/09 13:34:24;;;;;;;10.05;4.30;;;;;;;10.92;28.52;99336.51;1639672;87;21131;-82
2022/03/09 13:37:04;;;;;;;9.80;4.28;;;;;;;11.17;29.45;99334.62;1626741;87;21004;-82
2022/03/09 13:39:43;;;;;;;11.70;3.67;;;;;;;10.93;28.52;99336.06;1628925;86;21571;-84
2022/03/09 13:42:23;;;;;;;8.60;4.30;;;;;;;10.59;28.58;99332.05;1683719;84;21004;-81
2022/03/09 13:45:15;;;;;;;7.58;3.95;;;;;;;10.45;28.60;99334.94;1676677;84;21171;-82
2022/03/09 13:47:57;;;;;;;13.93;4.83;;;;;;;9.99;27.41;99335.38;1676845;83;21071;-81
2022/03/09 13:50:34;;;;;;;11.43;4.17;;;;;;;9.69;28.74;99331.60;1662259;86;20995;-83
2022/03/09 13:53:11;;;;;;;9.20;3.70;;;;;;;9.35;29.33;99339.92;1629226;87;21025;-84
2022/03/09 13:55:45;;;;;;;9.18;4.78;;;;;;;8.99;29.56;99334.43;1637798;85;21084;-82
2022/03/09 13:58:14;;;;;;;9.23;4.58;;;;;;;8.81;30.25;99338.59;1678391;85;21032;-84
2022/03/09 14:00:44;;;;;;;8.80;4.00;;;;;;;9.02;30.27;99327.06;1674654;85;21011;-83
2022/03/09 14:03:19;;;;;;;9.83;4.62;;;;;;;9.78;31.27;99323.63;1643370;86;21057;-83
2022/03/09 14:05:57;;;;;;;10.05;4.40;;;;;;;10.23;31.30;99315.00;1640000;86;21080;-82
2022/03/09 14:08:31;;;;;;;10.45;4.10;;;;;;;11.00;27.71;99322.45;1605582;88;21117;-82
2022/03/09 14:11:13;;;;;;;7.00;3.83;;;;;;;11.68;27.06;99322.98;1620771;87;21017;-82
2022/03/09 14:14:04;;;;;;;12.35;4.30;;;;;;;12.36;27.83;99312.89;1632103;87;21056;-81
2022/03/09 14:16:46;;;;;;;10.80;4.10;;;;;;;13.12;28.55;99307.53;1634791;87;21012;-81
2022/03/09 14:19:19;;;;;;;10.23;5.12;;;;;;;13.39;25.82;99320.62;1627280;86;21581;-83
2022/03/09 14:21:51;;;;;;;6.53;3.77;;;;;;;13.41;26.29;99320.11;1631279;87;21149;-83
2022/03/09 14:24:18;;;;;;;10.05;4.72;;;;;;;13.33;25.88;99315.17;1640149;87;21032;-82
2022/03/09 14:26:47;;;;;;;10.72;4.17;;;;;;;13.08;26.57;99313.30;1637338;87;21105;-83
2022/03/09 14:29:14;;;;;;;7.58;4.30;;;;;;;12.65;24.98;99316.38;1640095;86;21017;-83
2022/03/09 14:31:44;;;;;;;15.23;5.03;;;;;;;12.26;26.79;99314.05;1637883;87;21041;-82
2022/03/09 14:34:11;;;;;;;8.85;4.60;;;;;;;11.79;26.24;99317.48;1632006;87;20984;-83
2022/03/09 14:36:38;;;;;;;9.08;4.15;;;;;;;11.37;26.50;99318.98;1625818;88;21119;-84
2022/03/09 14:39:05;;;;;;;11.45;4.78;;;;;;;11.05;27.30;99316.71;1626730;88;21123;-83
2022/03/09 14:41:33;;;;;;;11.35;4.65;;;;;;;10.67;27.08;99315.84;1612230;87;21019;-83
2022/03/09 14:44:00;;;;;;;9.60;4.83;;;;;;;10.51;29.38;99314.86;1623282;88;21046;-83
2022/03/09 14:46:26;;;;;;;21.05;4.83;;;;;;;10.15;28.74;99314.70;1619771;88;21581;-82
2022/03/09 14:48:53;;;;;;;16.00;4.22;;;;;;;9.73;28.29;99313.34;1617287;88;21028;-83
2022/03/09 14:51:21;;;;;;;20.15;4.30;;;;;;;9.30;28.07;99314.06;1669465;84;21175;-82
2022/03/09 14:53:48;;;;;;;11.78;3.80;;;;;;;8.87;28.49;99317.34;1643584;87;21065;-82
2022/03/09 14:56:15;;;;;;;13.10;6.28;;;;;;;8.60;28.81;99321.17;1640602;87;21000;-81
2022/03/09 14:58:50;;;;;;;12.35;5.50;;;;;;;8.41;30.18;99317.06;1635066;87;20985;-83
2022/03/09 15:01:18;;;;;;;14.85;5.97;;;;;;;8.19;30.94;99324.25;1637053;87;21096;-83
2022/03/09 15:03:45;;;;;;;14.20;6.65;;;;;;;8.03;31.56;99324.41;1644185;86;21076;-84
2022/03/09 15:06:11;;;;;;;12.23;5.65;;;;;;;7.84;31.66;99329.36;1639143;87;20965;-81
2022/03/09 15:08:38;;;;;;;14.05;5.35;;;;;;;7.54;31.94;99332.66;1631980;87;20977;-85
2022/03/09 15:11:05;;;;;;;15.00;7.60;;;;;;;7.37;32.32;99329.80;1644636;86;21072;-84
2022/03/09 15:13:32;;;;;;;11.40;6.28;;;;;;;7.20;33.14;99324.33;1644501;87;20981;-85
2022/03/09 15:15:58;;;;;;;13.10;6.25;;;;;;;7.08;33.10;99322.70;1627465;88;21089;-84
2022/03/09 15:18:25;;;;;;;11.63;5.47;;;;;;;6.82;33.33;99333.21;1622288;87;21073;-85
2022/03/09 15:20:51;;;;;;;10.00;5.05;;;;;;;6.62;33.57;99327.72;1631342;87;20972;-85
2022/03/09 15:23:18;;;;;;;21.68;6.75;;;;;;;6.32;33.13;99330.87;1615041;87;21047;-83
2022/03/09 15:25:45;;;;;;;28.23;6.65;;;;;;;6.10;33.75;99334.41;1631874;87;21227;-85
2022/03/09 15:28:12;;;;;;;11.97;5.72;;;;;;;5.84;34.41;99340.45;1644564;87;21016;-83
2022/03/09 15:30:39;;;;;;;19.57;6.45;;;;;;;5.66;34.89;99345.22;1643540;81;21230;-89
2022/03/09 15:33:06;;;;;;;16.25;5.45;;;;;;;5.54;35.32;99348.66;1657238;85;21001;-83
2022/03/09 15:35:33;;;;;;;23.83;6.25;;;;;;;5.40;36.35;99351.69;1692863;83;21016;-83
2022/03/09 15:38:00;;;;;;;10.00;5.15;;;;;;;5.28;36.52;99343.52;1687125;83;21067;-82
2022/03/09 15:40:26;;;;;;;15.38;5.78;;;;;;;5.19;37.48;99347.37;1662752;86;21012;-84
2022/03/09 15:42:54;;;;;;;12.90;5.92;;;;;;;5.07;36.21;99352.52;1683895;84;21082;-83
2022/03/09 15:45:21;;;;;;;11.43;5.78;;;;;;;4.95;36.20;99349.09;1705640;84;20964;-81
2022/03/09 15:47:47;;;;;;;21.25;5.50;;;;;;;4.84;36.75;99348.20;1718644;83;21028;-83
2022/03/09 15:50:14;;;;;;;14.47;5.95;;;;;;;4.72;36.36;99354.61;1706881;83;21020;-85
2022/03/09 15:52:41;;;;;;;18.30;6.30;;;;;;;4.55;37.43;99357.97;1695657;83;20982;-83
2022/03/09 15:55:09;;;;;;;16.60;6.17;;;;;;;4.46;38.99;99359.25;1671243;82;21207;-90
2022/03/09 15:57:41;;;;;;;15.65;6.87;;;;;;;4.35;38.10;99359.19;1637533;85;21099;-87
2022/03/09 16:00:29;;;;;;;16.35;6.80;;;;;;;4.26;38.29;99364.31;1641764;85;21358;-85
2022/03/09 16:02:56;;;;;;;15.55;7.47;;;;;;;4.13;39.04;99360.80;1632873;84;21111;-88
2022/03/09 16:05:23;;;;;;;18.90;7.67;;;;;;;4.06;37.75;99359.47;1632273;86;21024;-82
2022/03/09 16:07:49;;;;;;;22.00;8.65;;;;;;;3.94;38.20;99361.58;1629959;86;21012;-83
2022/03/09 16:10:17;;;;;;;22.65;8.25;;;;;;;3.83;40.07;99361.92;1599146;89;21076;-85
2022/03/09 16:12:44;;;;;;;22.13;8.03;;;;;;;3.70;40.02;99361.85;1629125;84;21031;-85
2022/03/09 16:15:11;;;;;;;18.62;8.90;;;;;;;3.61;40.76;99364.34;1663184;82;21154;-90
2022/03/09 16:17:39;;;;;;;22.45;9.40;;;;;;;3.51;41.28;99361.27;1714142;82;21549;-91